Lenorah, Texas
Current Conditions -  °F | °C
As of 1:55 AM on Saturday 27 Dec 2014 (Local Time) from KBPG Reporting Station
Overcast Overcast  
Wind Chill: 37°   Ceiling: 7500
Heat Index: 43°   Visibility: 10mi
Dew Point: 30°   Wind: 13mph
Humidity: 59%   Direction: 20°NNE
Pressure: 30.11"   Gusts: 16mph
Location:  32.3°N, 101.88°W
Report Text: KBPG 270755Z AUTO 02011G14KT 10SM OVC075 06/M01 A3011 RMK AO2 T00631013
Loading
Personal Weather Stations






























Interactive Weather Map New forecast layout! Learn more

10-Day Weather Forecast

Advertisements
Track Severe Weather on mobile